sensor_id;sensor_type;location;lat;lon;timestamp;temperature;humidity
33093;DHT22;19456;46.104;12.908;2024-03-06T00:02:06;12.30;99.90
33093;DHT22;19456;46.104;12.908;2024-03-06T00:04:32;12.30;99.90
33093;DHT22;19456;46.104;12.908;2024-03-06T00:06:58;12.40;99.90
33093;DHT22;19456;46.104;12.908;2024-03-06T00:09:25;12.40;99.90
33093;DHT22;19456;46.104;12.908;2024-03-06T00:11:52;12.30;99.90
33093;DHT22;19456;46.104;12.908;2024-03-06T00:14:18;12.20;99.90
33093;DHT22;19456;46.104;12.908;2024-03-06T00:16:44;12.20;99.90
33093;DHT22;19456;46.104;12.908;2024-03-06T00:19:10;12.30;99.90
33093;DHT22;19456;46.104;12.908;2024-03-06T00:21:36;12.10;99.90
33093;DHT22;19456;46.104;12.908;2024-03-06T00:24:02;12.10;99.90
33093;DHT22;19456;46.104;12.908;2024-03-06T00:26:29;12.10;99.90
33093;DHT22;19456;46.104;12.908;2024-03-06T00:28:54;12.00;99.90
33093;DHT22;19456;46.104;12.908;2024-03-06T00:31:20;12.00;99.90
33093;DHT22;19456;46.104;12.908;2024-03-06T00:33:45;11.90;99.90
33093;DHT22;19456;46.104;12.908;2024-03-06T00:36:11;11.90;99.90
33093;DHT22;19456;46.104;12.908;2024-03-06T00:38:36;11.80;99.90
33093;DHT22;19456;46.104;12.908;2024-03-06T00:41:02;11.80;99.90
33093;DHT22;19456;46.104;12.908;2024-03-06T00:43:28;11.70;99.90
33093;DHT22;19456;46.104;12.908;2024-03-06T00:45:53;11.70;99.90
33093;DHT22;19456;46.104;12.908;2024-03-06T00:48:19;11.60;99.90
33093;DHT22;19456;46.104;12.908;2024-03-06T00:50:47;11.60;99.90
33093;DHT22;19456;46.104;12.908;2024-03-06T00:53:13;11.60;99.90
33093;DHT22;19456;46.104;12.908;2024-03-06T00:55:38;11.60;99.90
33093;DHT22;19456;46.104;12.908;2024-03-06T00:58:05;11.70;99.90
33093;DHT22;19456;46.104;12.908;2024-03-06T01:00:31;11.70;99.90
33093;DHT22;19456;46.104;12.908;2024-03-06T01:02:57;11.80;99.90
33093;DHT22;19456;46.104;12.908;2024-03-06T01:05:22;11.80;99.90
33093;DHT22;19456;46.104;12.908;2024-03-06T01:07:48;11.80;99.90
33093;DHT22;19456;46.104;12.908;2024-03-06T01:10:14;11.80;99.90
33093;DHT22;19456;46.104;12.908;2024-03-06T01:12:39;11.70;99.90
33093;DHT22;19456;46.104;12.908;2024-03-06T01:15:05;11.60;99.90
33093;DHT22;19456;46.104;12.908;2024-03-06T01:17:30;11.40;99.90
33093;DHT22;19456;46.104;12.908;2024-03-06T01:19:56;11.20;99.90
33093;DHT22;19456;46.104;12.908;2024-03-06T01:22:21;10.90;99.90
33093;DHT22;19456;46.104;12.908;2024-03-06T01:24:47;10.90;99.90
33093;DHT22;19456;46.104;12.908;2024-03-06T01:27:15;10.80;99.90
33093;DHT22;19456;46.104;12.908;2024-03-06T01:29:41;11.00;99.90
33093;DHT22;19456;46.104;12.908;2024-03-06T01:32:06;11.10;99.90
33093;DHT22;19456;46.104;12.908;2024-03-06T01:34:32;11.20;99.90
33093;DHT22;19456;46.104;12.908;2024-03-06T01:36:58;11.10;99.90
33093;DHT22;19456;46.104;12.908;2024-03-06T01:39:23;11.10;99.90
33093;DHT22;19456;46.104;12.908;2024-03-06T01:41:49;11.10;99.90
33093;DHT22;19456;46.104;12.908;2024-03-06T01:44:16;11.10;99.90
33093;DHT22;19456;46.104;12.908;2024-03-06T01:46:42;11.20;99.90
33093;DHT22;19456;46.104;12.908;2024-03-06T01:49:08;11.10;99.90
33093;DHT22;19456;46.104;12.908;2024-03-06T01:51:34;11.10;99.90
33093;DHT22;19456;46.104;12.908;2024-03-06T01:54:00;11.10;99.90
33093;DHT22;19456;46.104;12.908;2024-03-06T01:56:26;11.10;99.90
33093;DHT22;19456;46.104;12.908;2024-03-06T01:58:52;11.20;99.90
33093;DHT22;19456;46.104;12.908;2024-03-06T02:01:19;11.30;99.90
33093;DHT22;19456;46.104;12.908;2024-03-06T02:03:44;11.20;99.90
33093;DHT22;19456;46.104;12.908;2024-03-06T02:06:10;11.20;99.90
33093;DHT22;19456;46.104;12.908;2024-03-06T02:08:37;11.30;99.90
33093;DHT22;19456;46.104;12.908;2024-03-06T02:11:02;11.20;99.90
33093;DHT22;19456;46.104;12.908;2024-03-06T02:13:28;11.10;99.90
33093;DHT22;19456;46.104;12.908;2024-03-06T02:15:54;11.00;99.90
33093;DHT22;19456;46.104;12.908;2024-03-06T02:18:20;10.90;99.90
33093;DHT22;19456;46.104;12.908;2024-03-06T02:20:46;10.90;99.90
33093;DHT22;19456;46.104;12.908;2024-03-06T02:23:12;10.90;99.90
33093;DHT22;19456;46.104;12.908;2024-03-06T02:25:38;10.70;99.90
33093;DHT22;19456;46.104;12.908;2024-03-06T02:28:04;10.70;99.90
33093;DHT22;19456;46.104;12.908;2024-03-06T02:30:31;10.60;99.90
33093;DHT22;19456;46.104;12.908;2024-03-06T02:33:02;10.50;99.90
33093;DHT22;19456;46.104;12.908;2024-03-06T02:35:29;10.50;99.90
33093;DHT22;19456;46.104;12.908;2024-03-06T02:37:55;10.70;99.90
33093;DHT22;19456;46.104;12.908;2024-03-06T02:40:22;10.60;99.90
33093;DHT22;19456;46.104;12.908;2024-03-06T02:42:48;10.50;99.90
33093;DHT22;19456;46.104;12.908;2024-03-06T02:45:13;10.60;99.90
33093;DHT22;19456;46.104;12.908;2024-03-06T02:47:39;10.70;99.90
33093;DHT22;19456;46.104;12.908;2024-03-06T02:50:04;10.80;99.90
33093;DHT22;19456;46.104;12.908;2024-03-06T02:52:30;10.80;99.90
33093;DHT22;19456;46.104;12.908;2024-03-06T02:54:56;10.80;99.90
33093;DHT22;19456;46.104;12.908;2024-03-06T02:57:22;10.80;99.90
33093;DHT22;19456;46.104;12.908;2024-03-06T02:59:47;10.90;99.90
33093;DHT22;19456;46.104;12.908;2024-03-06T03:02:13;10.80;99.90
33093;DHT22;19456;46.104;12.908;2024-03-06T03:04:38;10.70;99.90
33093;DHT22;19456;46.104;12.908;2024-03-06T03:07:04;10.70;99.90
33093;DHT22;19456;46.104;12.908;2024-03-06T03:09:30;10.70;99.90
33093;DHT22;19456;46.104;12.908;2024-03-06T03:11:56;10.60;99.90
33093;DHT22;19456;46.104;12.908;2024-03-06T03:14:22;10.40;99.90
33093;DHT22;19456;46.104;12.908;2024-03-06T03:16:48;10.40;99.90
33093;DHT22;19456;46.104;12.908;2024-03-06T03:19:13;10.50;99.90
33093;DHT22;19456;46.104;12.908;2024-03-06T03:21:42;10.40;99.90
33093;DHT22;19456;46.104;12.908;2024-03-06T03:24:07;10.50;99.90
33093;DHT22;19456;46.104;12.908;2024-03-06T03:26:33;10.70;99.90
33093;DHT22;19456;46.104;12.908;2024-03-06T03:28:58;10.70;99.90
33093;DHT22;19456;46.104;12.908;2024-03-06T03:31:24;10.70;99.90
33093;DHT22;19456;46.104;12.908;2024-03-06T03:33:50;10.80;99.90
33093;DHT22;19456;46.104;12.908;2024-03-06T03:36:15;10.80;99.90
33093;DHT22;19456;46.104;12.908;2024-03-06T03:38:41;10.80;99.90
33093;DHT22;19456;46.104;12.908;2024-03-06T03:41:07;10.60;99.90
33093;DHT22;19456;46.104;12.908;2024-03-06T03:43:32;10.70;99.90
33093;DHT22;19456;46.104;12.908;2024-03-06T03:45:58;10.70;99.90
33093;DHT22;19456;46.104;12.908;2024-03-06T03:48:24;10.60;99.90
33093;DHT22;19456;46.104;12.908;2024-03-06T03:50:50;10.70;99.90
33093;DHT22;19456;46.104;12.908;2024-03-06T03:53:15;10.70;99.90
33093;DHT22;19456;46.104;12.908;2024-03-06T03:55:41;10.80;99.90
33093;DHT22;19456;46.104;12.908;2024-03-06T03:58:07;10.80;99.90
33093;DHT22;19456;46.104;12.908;2024-03-06T04:00:32;10.80;99.90
33093;DHT22;19456;46.104;12.908;2024-03-06T04:02:58;10.80;99.90
33093;DHT22;19456;46.104;12.908;2024-03-06T04:05:24;10.80;99.90
33093;DHT22;19456;46.104;12.908;2024-03-06T04:07:49;10.70;99.90
33093;DHT22;19456;46.104;12.908;2024-03-06T04:10:16;10.60;99.90
33093;DHT22;19456;46.104;12.908;2024-03-06T04:12:41;10.70;99.90
33093;DHT22;19456;46.104;12.908;2024-03-06T04:15:09;10.70;99.90
33093;DHT22;19456;46.104;12.908;2024-03-06T04:17:35;10.80;99.90
33093;DHT22;19456;46.104;12.908;2024-03-06T04:20:03;10.90;99.90
33093;DHT22;19456;46.104;12.908;2024-03-06T04:22:31;10.90;99.90
33093;DHT22;19456;46.104;12.908;2024-03-06T04:24:56;11.00;99.90
33093;DHT22;19456;46.104;12.908;2024-03-06T04:27:24;11.10;99.90
33093;DHT22;19456;46.104;12.908;2024-03-06T04:29:50;11.10;99.90
33093;DHT22;19456;46.104;12.908;2024-03-06T04:32:15;11.00;99.90
33093;DHT22;19456;46.104;12.908;2024-03-06T04:34:41;10.90;99.90
33093;DHT22;19456;46.104;12.908;2024-03-06T04:37:06;10.90;99.90
33093;DHT22;19456;46.104;12.908;2024-03-06T04:39:32;10.80;99.90
33093;DHT22;19456;46.104;12.908;2024-03-06T04:41:58;10.70;99.90
33093;DHT22;19456;46.104;12.908;2024-03-06T04:44:23;10.70;99.90
33093;DHT22;19456;46.104;12.908;2024-03-06T04:46:52;10.70;99.90
33093;DHT22;19456;46.104;12.908;2024-03-06T04:49:17;10.70;99.90
33093;DHT22;19456;46.104;12.908;2024-03-06T04:51:43;10.70;99.90
33093;DHT22;19456;46.104;12.908;2024-03-06T04:54:08;10.70;99.90
33093;DHT22;19456;46.104;12.908;2024-03-06T04:56:34;10.70;99.90
33093;DHT22;19456;46.104;12.908;2024-03-06T04:58:59;10.70;99.90
33093;DHT22;19456;46.104;12.908;2024-03-06T05:01:28;10.70;99.90
33093;DHT22;19456;46.104;12.908;2024-03-06T05:03:54;10.60;99.90
33093;DHT22;19456;46.104;12.908;2024-03-06T05:06:20;10.50;99.90
33093;DHT22;19456;46.104;12.908;2024-03-06T05:08:45;10.50;99.90
33093;DHT22;19456;46.104;12.908;2024-03-06T05:11:11;10.40;99.90
33093;DHT22;19456;46.104;12.908;2024-03-06T05:13:36;10.40;99.90
33093;DHT22;19456;46.104;12.908;2024-03-06T05:16:02;10.30;99.90
33093;DHT22;19456;46.104;12.908;2024-03-06T05:18:27;10.10;99.90
33093;DHT22;19456;46.104;12.908;2024-03-06T05:20:53;10.00;99.90
33093;DHT22;19456;46.104;12.908;2024-03-06T05:23:19;9.80;99.90
33093;DHT22;19456;46.104;12.908;2024-03-06T05:25:45;9.80;99.90
33093;DHT22;19456;46.104;12.908;2024-03-06T05:28:11;9.70;99.90
33093;DHT22;19456;46.104;12.908;2024-03-06T05:30:36;9.60;99.90
33093;DHT22;19456;46.104;12.908;2024-03-06T05:33:02;9.50;99.90
33093;DHT22;19456;46.104;12.908;2024-03-06T05:35:27;9.40;99.90
33093;DHT22;19456;46.104;12.908;2024-03-06T05:37:53;9.40;99.90
33093;DHT22;19456;46.104;12.908;2024-03-06T05:40:19;9.40;99.90
33093;DHT22;19456;46.104;12.908;2024-03-06T05:42:44;9.40;99.90
33093;DHT22;19456;46.104;12.908;2024-03-06T05:45:10;9.30;99.90
33093;DHT22;19456;46.104;12.908;2024-03-06T05:47:36;9.20;99.90
33093;DHT22;19456;46.104;12.908;2024-03-06T05:50:02;9.20;99.90
33093;DHT22;19456;46.104;12.908;2024-03-06T05:52:30;9.20;99.90
33093;DHT22;19456;46.104;12.908;2024-03-06T05:54:56;9.30;99.90
33093;DHT22;19456;46.104;12.908;2024-03-06T05:57:22;9.30;99.90
33093;DHT22;19456;46.104;12.908;2024-03-06T05:59:47;9.30;99.90
33093;DHT22;19456;46.104;12.908;2024-03-06T06:02:13;9.40;99.90
33093;DHT22;19456;46.104;12.908;2024-03-06T06:04:38;9.30;99.90
33093;DHT22;19456;46.104;12.908;2024-03-06T06:07:04;9.30;99.90
33093;DHT22;19456;46.104;12.908;2024-03-06T06:09:29;9.30;99.90
33093;DHT22;19456;46.104;12.908;2024-03-06T06:11:55;9.40;99.90
33093;DHT22;19456;46.104;12.908;2024-03-06T06:14:21;9.40;99.90
33093;DHT22;19456;46.104;12.908;2024-03-06T06:16:47;9.40;99.90
33093;DHT22;19456;46.104;12.908;2024-03-06T06:19:12;9.40;99.90
33093;DHT22;19456;46.104;12.908;2024-03-06T06:21:38;9.40;99.90
33093;DHT22;19456;46.104;12.908;2024-03-06T06:24:04;9.40;99.90
33093;DHT22;19456;46.104;12.908;2024-03-06T06:26:30;9.40;99.90
33093;DHT22;19456;46.104;12.908;2024-03-06T06:28:56;9.30;99.90
33093;DHT22;19456;46.104;12.908;2024-03-06T06:31:23;9.30;99.90
33093;DHT22;19456;46.104;12.908;2024-03-06T06:33:50;9.30;99.90
33093;DHT22;19456;46.104;12.908;2024-03-06T06:36:17;9.30;99.90
33093;DHT22;19456;46.104;12.908;2024-03-06T06:38:43;9.30;99.90
33093;DHT22;19456;46.104;12.908;2024-03-06T06:41:09;9.40;99.90
33093;DHT22;19456;46.104;12.908;2024-03-06T06:43:35;9.40;99.90
33093;DHT22;19456;46.104;12.908;2024-03-06T06:46:01;9.40;99.90
33093;DHT22;19456;46.104;12.908;2024-03-06T06:48:30;9.30;99.90
33093;DHT22;19456;46.104;12.908;2024-03-06T06:50:55;9.20;99.90
33093;DHT22;19456;46.104;12.908;2024-03-06T06:53:21;9.20;99.90
33093;DHT22;19456;46.104;12.908;2024-03-06T06:55:46;9.20;99.90
33093;DHT22;19456;46.104;12.908;2024-03-06T06:58:12;9.40;99.90
33093;DHT22;19456;46.104;12.908;2024-03-06T07:00:37;9.60;99.90
33093;DHT22;19456;46.104;12.908;2024-03-06T07:03:05;9.50;99.90
33093;DHT22;19456;46.104;12.908;2024-03-06T07:05:30;9.60;99.90
33093;DHT22;19456;46.104;12.908;2024-03-06T07:07:56;9.80;99.90
33093;DHT22;19456;46.104;12.908;2024-03-06T07:10:22;9.80;99.90
33093;DHT22;19456;46.104;12.908;2024-03-06T07:12:49;9.70;99.90
33093;DHT22;19456;46.104;12.908;2024-03-06T07:15:15;9.70;99.90
33093;DHT22;19456;46.104;12.908;2024-03-06T07:17:42;9.60;99.90
33093;DHT22;19456;46.104;12.908;2024-03-06T07:20:08;9.50;99.90
33093;DHT22;19456;46.104;12.908;2024-03-06T07:22:34;9.40;99.90
33093;DHT22;19456;46.104;12.908;2024-03-06T07:25:00;9.40;99.90
33093;DHT22;19456;46.104;12.908;2024-03-06T07:27:26;9.50;99.90
33093;DHT22;19456;46.104;12.908;2024-03-06T07:29:53;9.40;99.90
33093;DHT22;19456;46.104;12.908;2024-03-06T07:32:19;9.30;99.90
33093;DHT22;19456;46.104;12.908;2024-03-06T07:34:44;9.30;99.90
33093;DHT22;19456;46.104;12.908;2024-03-06T07:37:10;9.20;99.90
33093;DHT22;19456;46.104;12.908;2024-03-06T07:39:35;9.30;99.90
33093;DHT22;19456;46.104;12.908;2024-03-06T07:42:01;9.20;99.90
33093;DHT22;19456;46.104;12.908;2024-03-06T07:44:27;9.20;99.90
33093;DHT22;19456;46.104;12.908;2024-03-06T07:46:53;9.10;99.90
33093;DHT22;19456;46.104;12.908;2024-03-06T07:49:19;9.10;99.90
33093;DHT22;19456;46.104;12.908;2024-03-06T07:51:47;9.10;99.90
33093;DHT22;19456;46.104;12.908;2024-03-06T07:54:13;9.30;99.90
33093;DHT22;19456;46.104;12.908;2024-03-06T07:56:38;9.30;99.90
33093;DHT22;19456;46.104;12.908;2024-03-06T07:59:04;9.30;99.90
33093;DHT22;19456;46.104;12.908;2024-03-06T08:01:32;9.40;99.90
33093;DHT22;19456;46.104;12.908;2024-03-06T08:03:58;9.50;99.90
33093;DHT22;19456;46.104;12.908;2024-03-06T08:06:24;9.50;99.90
33093;DHT22;19456;46.104;12.908;2024-03-06T08:08:50;9.50;99.90
33093;DHT22;19456;46.104;12.908;2024-03-06T08:11:17;9.70;99.90
33093;DHT22;19456;46.104;12.908;2024-03-06T08:13:43;10.00;99.90
33093;DHT22;19456;46.104;12.908;2024-03-06T08:16:08;10.10;99.90
33093;DHT22;19456;46.104;12.908;2024-03-06T08:18:34;10.20;99.90
33093;DHT22;19456;46.104;12.908;2024-03-06T08:21:00;10.00;99.90
33093;DHT22;19456;46.104;12.908;2024-03-06T08:23:26;10.00;99.90
33093;DHT22;19456;46.104;12.908;2024-03-06T08:25:51;10.00;99.90
33093;DHT22;19456;46.104;12.908;2024-03-06T08:28:18;9.90;99.90
33093;DHT22;19456;46.104;12.908;2024-03-06T08:30:43;9.90;99.90
33093;DHT22;19456;46.104;12.908;2024-03-06T08:33:09;10.00;99.90
33093;DHT22;19456;46.104;12.908;2024-03-06T08:35:35;10.00;99.90
33093;DHT22;19456;46.104;12.908;2024-03-06T08:38:01;10.10;99.90
33093;DHT22;19456;46.104;12.908;2024-03-06T08:40:26;10.20;99.90
33093;DHT22;19456;46.104;12.908;2024-03-06T08:42:53;10.40;99.90
33093;DHT22;19456;46.104;12.908;2024-03-06T08:45:19;10.40;99.90
33093;DHT22;19456;46.104;12.908;2024-03-06T08:47:45;10.50;99.90
33093;DHT22;19456;46.104;12.908;2024-03-06T08:50:11;10.50;99.90
33093;DHT22;19456;46.104;12.908;2024-03-06T08:55:57;10.70;99.90
33093;DHT22;19456;46.104;12.908;2024-03-06T08:58:25;10.70;99.90
33093;DHT22;19456;46.104;12.908;2024-03-06T09:04:18;10.60;99.90
33093;DHT22;19456;46.104;12.908;2024-03-06T09:06:49;10.60;99.90
33093;DHT22;19456;46.104;12.908;2024-03-06T09:09:37;10.70;99.90
33093;DHT22;19456;46.104;12.908;2024-03-06T09:14:54;10.50;99.90
33093;DHT22;19456;46.104;12.908;2024-03-06T09:17:50;10.40;99.90
33093;DHT22;19456;46.104;12.908;2024-03-06T09:20:25;10.40;99.90
33093;DHT22;19456;46.104;12.908;2024-03-06T09:22:51;10.50;99.90
33093;DHT22;19456;46.104;12.908;2024-03-06T09:25:19;10.50;99.90
33093;DHT22;19456;46.104;12.908;2024-03-06T09:27:54;10.50;99.90
33093;DHT22;19456;46.104;12.908;2024-03-06T09:30:30;10.60;99.90
33093;DHT22;19456;46.104;12.908;2024-03-06T09:33:07;10.70;99.90
33093;DHT22;19456;46.104;12.908;2024-03-06T09:35:33;10.70;99.90
33093;DHT22;19456;46.104;12.908;2024-03-06T09:38:02;10.60;99.90
33093;DHT22;19456;46.104;12.908;2024-03-06T09:40:31;10.50;99.90
33093;DHT22;19456;46.104;12.908;2024-03-06T09:43:06;10.40;99.90
33093;DHT22;19456;46.104;12.908;2024-03-06T09:45:32;10.40;99.90
33093;DHT22;19456;46.104;12.908;2024-03-06T09:48:04;10.50;99.90
33093;DHT22;19456;46.104;12.908;2024-03-06T09:50:29;10.40;99.90
33093;DHT22;19456;46.104;12.908;2024-03-06T09:52:57;10.20;99.90
33093;DHT22;19456;46.104;12.908;2024-03-06T09:55:23;10.40;99.90
33093;DHT22;19456;46.104;12.908;2024-03-06T09:57:49;10.50;99.90
33093;DHT22;19456;46.104;12.908;2024-03-06T10:00:15;10.50;99.90
33093;DHT22;19456;46.104;12.908;2024-03-06T10:02:46;10.60;99.90
33093;DHT22;19456;46.104;12.908;2024-03-06T10:05:22;10.60;99.90
33093;DHT22;19456;46.104;12.908;2024-03-06T10:07:49;10.70;99.90
33093;DHT22;19456;46.104;12.908;2024-03-06T10:10:15;10.70;99.90
33093;DHT22;19456;46.104;12.908;2024-03-06T10:12:41;10.70;99.90
33093;DHT22;19456;46.104;12.908;2024-03-06T10:15:08;10.70;99.90
33093;DHT22;19456;46.104;12.908;2024-03-06T10:17:37;10.70;99.90
33093;DHT22;19456;46.104;12.908;2024-03-06T10:20:22;10.70;99.90
33093;DHT22;19456;46.104;12.908;2024-03-06T10:22:51;10.70;99.90
33093;DHT22;19456;46.104;12.908;2024-03-06T10:25:18;10.80;99.90
33093;DHT22;19456;46.104;12.908;2024-03-06T10:27:43;10.70;99.90
33093;DHT22;19456;46.104;12.908;2024-03-06T10:30:09;10.80;99.90
33093;DHT22;19456;46.104;12.908;2024-03-06T10:32:38;10.80;99.90
33093;DHT22;19456;46.104;12.908;2024-03-06T10:35:04;10.90;99.90
33093;DHT22;19456;46.104;12.908;2024-03-06T10:37:31;11.00;99.90
33093;DHT22;19456;46.104;12.908;2024-03-06T10:40:01;11.00;99.90
33093;DHT22;19456;46.104;12.908;2024-03-06T10:42:31;11.10;99.90
33093;DHT22;19456;46.104;12.908;2024-03-06T10:44:58;11.00;99.90
33093;DHT22;19456;46.104;12.908;2024-03-06T10:47:24;10.90;99.90
33093;DHT22;19456;46.104;12.908;2024-03-06T10:49:51;10.80;99.90
33093;DHT22;19456;46.104;12.908;2024-03-06T10:52:19;10.70;99.90
33093;DHT22;19456;46.104;12.908;2024-03-06T10:54:45;10.40;99.90
33093;DHT22;19456;46.104;12.908;2024-03-06T10:57:11;10.40;99.90
33093;DHT22;19456;46.104;12.908;2024-03-06T10:59:37;10.40;99.90
33093;DHT22;19456;46.104;12.908;2024-03-06T11:02:03;10.60;99.90
33093;DHT22;19456;46.104;12.908;2024-03-06T11:04:30;10.90;99.90
33093;DHT22;19456;46.104;12.908;2024-03-06T11:06:59;10.90;99.90
33093;DHT22;19456;46.104;12.908;2024-03-06T11:09:34;11.00;99.90
33093;DHT22;19456;46.104;12.908;2024-03-06T11:12:07;10.90;99.90
33093;DHT22;19456;46.104;12.908;2024-03-06T11:38:28;10.90;99.90
33093;DHT22;19456;46.104;12.908;2024-03-06T11:41:26;11.00;99.90
33093;DHT22;19456;46.104;12.908;2024-03-06T11:50:49;11.50;99.90
33093;DHT22;19456;46.104;12.908;2024-03-06T11:53:24;11.40;99.90
33093;DHT22;19456;46.104;12.908;2024-03-06T12:05:49;11.30;99.90
33093;DHT22;19456;46.104;12.908;2024-03-06T12:08:18;11.60;99.90
33093;DHT22;19456;46.104;12.908;2024-03-06T12:10:46;11.50;99.90
33093;DHT22;19456;46.104;12.908;2024-03-06T12:13:15;11.20;99.90
33093;DHT22;19456;46.104;12.908;2024-03-06T12:15:44;11.10;99.90
33093;DHT22;19456;46.104;12.908;2024-03-06T12:21:38;10.90;99.90
33093;DHT22;19456;46.104;12.908;2024-03-06T12:33:18;12.00;99.90
33093;DHT22;19456;46.104;12.908;2024-03-06T12:35:45;12.10;99.90
33093;DHT22;19456;46.104;12.908;2024-03-06T12:38:14;12.10;99.90
33093;DHT22;19456;46.104;12.908;2024-03-06T12:40:41;12.30;99.90
33093;DHT22;19456;46.104;12.908;2024-03-06T12:43:06;12.70;99.90
33093;DHT22;19456;46.104;12.908;2024-03-06T12:45:32;13.00;99.90
33093;DHT22;19456;46.104;12.908;2024-03-06T12:47:58;13.10;99.90
33093;DHT22;19456;46.104;12.908;2024-03-06T12:50:23;13.20;99.90
33093;DHT22;19456;46.104;12.908;2024-03-06T12:52:49;13.30;99.90
33093;DHT22;19456;46.104;12.908;2024-03-06T12:55:14;13.30;99.90
33093;DHT22;19456;46.104;12.908;2024-03-06T12:57:40;13.30;99.90
33093;DHT22;19456;46.104;12.908;2024-03-06T13:00:06;13.20;99.90
33093;DHT22;19456;46.104;12.908;2024-03-06T13:02:44;13.20;99.90
33093;DHT22;19456;46.104;12.908;2024-03-06T13:05:10;13.20;99.90
33093;DHT22;19456;46.104;12.908;2024-03-06T13:07:36;13.00;99.90
33093;DHT22;19456;46.104;12.908;2024-03-06T13:10:02;13.10;99.90
33093;DHT22;19456;46.104;12.908;2024-03-06T13:12:28;13.10;99.90
33093;DHT22;19456;46.104;12.908;2024-03-06T13:14:53;12.60;99.90
33093;DHT22;19456;46.104;12.908;2024-03-06T13:17:19;12.50;99.90
33093;DHT22;19456;46.104;12.908;2024-03-06T13:19:44;12.20;99.90
33093;DHT22;19456;46.104;12.908;2024-03-06T13:22:10;12.10;99.90
33093;DHT22;19456;46.104;12.908;2024-03-06T13:24:36;12.00;99.90
33093;DHT22;19456;46.104;12.908;2024-03-06T13:27:03;11.90;99.90
33093;DHT22;19456;46.104;12.908;2024-03-06T13:29:28;11.90;99.90
33093;DHT22;19456;46.104;12.908;2024-03-06T13:31:54;12.00;99.90
33093;DHT22;19456;46.104;12.908;2024-03-06T13:34:19;12.10;99.90
33093;DHT22;19456;46.104;12.908;2024-03-06T13:36:45;12.20;99.90
33093;DHT22;19456;46.104;12.908;2024-03-06T13:39:10;12.30;99.90
33093;DHT22;19456;46.104;12.908;2024-03-06T13:41:36;12.40;99.90
33093;DHT22;19456;46.104;12.908;2024-03-06T13:44:02;12.50;99.90
33093;DHT22;19456;46.104;12.908;2024-03-06T13:46:27;12.70;99.90
33093;DHT22;19456;46.104;12.908;2024-03-06T13:48:53;12.80;99.90
33093;DHT22;19456;46.104;12.908;2024-03-06T13:51:18;12.50;99.90
33093;DHT22;19456;46.104;12.908;2024-03-06T13:53:44;12.50;99.90
33093;DHT22;19456;46.104;12.908;2024-03-06T13:56:16;12.30;99.90
33093;DHT22;19456;46.104;12.908;2024-03-06T13:58:42;11.90;99.90
33093;DHT22;19456;46.104;12.908;2024-03-06T14:01:08;12.00;99.90
33093;DHT22;19456;46.104;12.908;2024-03-06T14:03:33;12.30;99.90
33093;DHT22;19456;46.104;12.908;2024-03-06T14:05:59;12.50;99.90
33093;DHT22;19456;46.104;12.908;2024-03-06T14:08:25;12.70;99.90
33093;DHT22;19456;46.104;12.908;2024-03-06T14:10:51;12.80;99.90
33093;DHT22;19456;46.104;12.908;2024-03-06T14:13:16;12.70;99.90
33093;DHT22;19456;46.104;12.908;2024-03-06T14:15:42;12.70;99.90
33093;DHT22;19456;46.104;12.908;2024-03-06T14:18:08;12.70;99.90
33093;DHT22;19456;46.104;12.908;2024-03-06T14:20:33;12.70;99.90
33093;DHT22;19456;46.104;12.908;2024-03-06T14:22:59;12.80;99.90
33093;DHT22;19456;46.104;12.908;2024-03-06T14:25:24;12.70;99.90
33093;DHT22;19456;46.104;12.908;2024-03-06T14:27:50;12.70;99.90
33093;DHT22;19456;46.104;12.908;2024-03-06T14:30:16;12.80;99.90
33093;DHT22;19456;46.104;12.908;2024-03-06T14:32:43;12.70;99.90
33093;DHT22;19456;46.104;12.908;2024-03-06T14:35:09;12.60;99.90
33093;DHT22;19456;46.104;12.908;2024-03-06T14:37:34;12.60;99.90
33093;DHT22;19456;46.104;12.908;2024-03-06T14:40:00;12.70;99.90
33093;DHT22;19456;46.104;12.908;2024-03-06T14:42:26;12.80;99.90
33093;DHT22;19456;46.104;12.908;2024-03-06T14:44:51;12.80;99.90
33093;DHT22;19456;46.104;12.908;2024-03-06T14:47:17;12.60;99.90
33093;DHT22;19456;46.104;12.908;2024-03-06T14:49:43;12.50;99.90
33093;DHT22;19456;46.104;12.908;2024-03-06T14:52:10;12.40;99.90
33093;DHT22;19456;46.104;12.908;2024-03-06T14:54:36;12.40;99.90
33093;DHT22;19456;46.104;12.908;2024-03-06T14:57:01;12.30;99.90
33093;DHT22;19456;46.104;12.908;2024-03-06T14:59:27;12.30;99.90
33093;DHT22;19456;46.104;12.908;2024-03-06T15:01:52;12.30;99.90
33093;DHT22;19456;46.104;12.908;2024-03-06T15:04:18;12.20;99.90
33093;DHT22;19456;46.104;12.908;2024-03-06T15:06:45;12.20;99.90
33093;DHT22;19456;46.104;12.908;2024-03-06T15:09:10;12.10;99.90
33093;DHT22;19456;46.104;12.908;2024-03-06T15:11:41;12.00;99.90
33093;DHT22;19456;46.104;12.908;2024-03-06T15:14:07;11.90;99.90
33093;DHT22;19456;46.104;12.908;2024-03-06T15:16:33;11.90;99.90
33093;DHT22;19456;46.104;12.908;2024-03-06T15:18:59;11.70;99.90
33093;DHT22;19456;46.104;12.908;2024-03-06T15:21:24;11.60;99.90
33093;DHT22;19456;46.104;12.908;2024-03-06T15:23:50;11.50;99.90
33093;DHT22;19456;46.104;12.908;2024-03-06T15:26:16;11.30;99.90
33093;DHT22;19456;46.104;12.908;2024-03-06T15:28:42;11.30;99.90
33093;DHT22;19456;46.104;12.908;2024-03-06T15:31:07;11.00;99.90
33093;DHT22;19456;46.104;12.908;2024-03-06T15:33:33;10.80;99.90
33093;DHT22;19456;46.104;12.908;2024-03-06T15:35:59;10.70;99.90
33093;DHT22;19456;46.104;12.908;2024-03-06T15:38:25;10.70;99.90
33093;DHT22;19456;46.104;12.908;2024-03-06T15:40:52;10.70;99.90
33093;DHT22;19456;46.104;12.908;2024-03-06T15:43:17;10.70;99.90
33093;DHT22;19456;46.104;12.908;2024-03-06T15:45:43;10.70;99.90
33093;DHT22;19456;46.104;12.908;2024-03-06T15:48:09;10.80;99.90
33093;DHT22;19456;46.104;12.908;2024-03-06T15:50:39;10.70;99.90
33093;DHT22;19456;46.104;12.908;2024-03-06T15:53:05;10.70;99.90
33093;DHT22;19456;46.104;12.908;2024-03-06T15:55:31;10.60;99.90
33093;DHT22;19456;46.104;12.908;2024-03-06T15:57:56;10.60;99.90
33093;DHT22;19456;46.104;12.908;2024-03-06T16:00:22;10.60;99.90
33093;DHT22;19456;46.104;12.908;2024-03-06T16:02:47;10.60;99.90
33093;DHT22;19456;46.104;12.908;2024-03-06T16:05:13;10.60;99.90
33093;DHT22;19456;46.104;12.908;2024-03-06T16:07:38;10.60;99.90
33093;DHT22;19456;46.104;12.908;2024-03-06T16:10:04;10.50;99.90
33093;DHT22;19456;46.104;12.908;2024-03-06T16:12:31;10.50;99.90
33093;DHT22;19456;46.104;12.908;2024-03-06T16:14:56;10.40;99.90
33093;DHT22;19456;46.104;12.908;2024-03-06T16:17:22;10.40;99.90
33093;DHT22;19456;46.104;12.908;2024-03-06T16:19:47;10.30;99.90